Benedict, North Dakota
Current Conditions -  °F | °C
As of 12:54 PM on Thursday 30 Oct 2014 (Local Time) from KMOT Reporting Station
Overcast Overcast  
Wind Chill: 23°   Ceiling: 1500
Heat Index: 33°   Visibility: 10mi
Dew Point: 26°   Wind: 14mph
Humidity: 75%   Direction: 350°N
Pressure: 30.43"   Gusts: NA
Location:  47.83°N, 101.08°W
Report Text: KMOT 301754Z 35012KT 10SM OVC015 01/M03 A3043 RMK AO2 SLP329 T00061033 10011 21011 51031
Loading
Personal Weather Stations






























Interactive Weather Map
Tropical Storm Tracking
New forecast layout! Learn more

10-Day Weather Forecast

Advertisements
Track Severe Weather on mobile